createdAt,value
2022-09-18T00:01:36.963Z,59.11
2022-09-18T00:04:07.113Z,59.66
2022-09-18T00:06:39.090Z,58.77
2022-09-18T00:09:10.867Z,59.70
2022-09-18T00:11:46.548Z,60.41
2022-09-18T00:14:19.577Z,59.12
2022-09-18T00:16:48.300Z,59.68
2022-09-18T00:19:17.192Z,59.15
2022-09-18T00:21:49.048Z,59.65
2022-09-18T00:24:17.910Z,59.52
2022-09-18T00:26:47.254Z,58.99
2022-09-18T00:29:18.073Z,58.94
2022-09-18T00:31:46.240Z,59.39
2022-09-18T00:34:15.803Z,59.17
2022-09-18T00:36:43.956Z,59.21
2022-09-18T00:39:12.955Z,58.79
2022-09-18T00:41:43.409Z,58.13
2022-09-18T00:44:33.308Z,59.01
2022-09-18T00:47:20.574Z,58.47
2022-09-18T00:50:07.405Z,58.17
2022-09-18T00:52:58.041Z,58.09
2022-09-18T00:55:40.149Z,57.88
2022-09-18T00:58:08.401Z,57.57
2022-09-18T01:00:37.201Z,57.70
2022-09-18T01:03:05.515Z,57.29
2022-09-18T01:05:57.208Z,57.23
2022-09-18T01:08:48.994Z,57.62
2022-09-18T01:11:45.184Z,57.73
2022-09-18T01:14:44.255Z,57.88
2022-09-18T01:17:26.560Z,57.27
2022-09-18T01:20:31.844Z,56.84
2022-09-18T01:23:59.885Z,56.77
2022-09-18T01:26:56.230Z,56.68
2022-09-18T01:30:07.697Z,56.92
2022-09-18T01:32:55.228Z,56.57
2022-09-18T01:35:48.360Z,57.38
2022-09-18T01:38:57.704Z,57.41
2022-09-18T01:41:29.316Z,57.75
2022-09-18T01:44:05.868Z,58.41
2022-09-18T01:46:37.574Z,58.47
2022-09-18T01:49:20.737Z,58.47
2022-09-18T01:52:05.251Z,58.79
2022-09-18T01:54:36.385Z,58.62
2022-09-18T01:57:19.847Z,58.11
2022-09-18T02:00:02.712Z,58.29
2022-09-18T02:02:37.714Z,58.67
2022-09-18T02:05:08.795Z,58.46
2022-09-18T02:08:02.242Z,58.62
2022-09-18T02:10:35.494Z,58.69
2022-09-18T02:13:08.395Z,58.86
2022-09-18T02:15:40.228Z,59.06
2022-09-18T02:18:29.095Z,59.27
2022-09-18T02:21:01.117Z,60.12
2022-09-18T02:23:29.992Z,59.22
2022-09-18T02:26:04.670Z,60.08
2022-09-18T02:28:34.800Z,60.11
2022-09-18T02:31:03.312Z,59.58
2022-09-18T02:33:35.877Z,60.27
2022-09-18T02:36:12.388Z,60.57
2022-09-18T02:39:14.956Z,60.04
2022-09-18T02:42:15.190Z,59.81
2022-09-18T02:45:07.029Z,59.98
2022-09-18T02:47:40.618Z,59.82
2022-09-18T02:50:18.014Z,59.78
2022-09-18T02:53:13.208Z,60.60
2022-09-18T02:55:58.591Z,60.42
2022-09-18T02:58:55.120Z,61.58
2022-09-18T03:01:26.860Z,61.71
2022-09-18T03:03:55.790Z,61.11
2022-09-18T03:06:36.617Z,61.78
2022-09-18T03:09:04.646Z,61.61
2022-09-18T03:11:32.490Z,61.04
2022-09-18T03:14:00.202Z,61.10
2022-09-18T03:16:28.059Z,61.28
2022-09-18T03:18:55.958Z,60.58
2022-09-18T03:21:23.861Z,60.97
2022-09-18T03:23:52.025Z,60.58
2022-09-18T03:26:26.127Z,61.11
2022-09-18T03:28:54.775Z,60.50
2022-09-18T03:31:22.578Z,60.48
2022-09-18T03:33:50.970Z,60.52
2022-09-18T03:36:20.209Z,60.53
2022-09-18T03:38:47.926Z,60.63
2022-09-18T03:41:15.750Z,61.16
2022-09-18T03:43:43.867Z,60.84
2022-09-18T03:46:12.865Z,60.81
2022-09-18T03:48:40.698Z,60.62
2022-09-18T03:51:08.501Z,60.77
2022-09-18T03:53:36.246Z,60.69
2022-09-18T03:56:18.699Z,61.39
2022-09-18T03:59:01.097Z,60.63
2022-09-18T04:01:47.503Z,60.45
2022-09-18T04:04:28.492Z,60.50
2022-09-18T04:07:14.513Z,60.52
2022-09-18T04:09:51.093Z,60.00
2022-09-18T04:12:18.879Z,60.52
2022-09-18T04:14:55.314Z,60.53
2022-09-18T04:17:23.920Z,60.25
2022-09-18T04:19:53.754Z,60.26
2022-09-18T04:22:22.865Z,60.01
2022-09-18T04:24:50.670Z,60.11
2022-09-18T04:27:18.661Z,59.75
2022-09-18T04:29:46.501Z,60.05
2022-09-18T04:32:16.951Z,60.63
2022-09-18T04:34:44.792Z,60.23
2022-09-18T04:37:12.985Z,60.02
2022-09-18T04:39:40.954Z,59.83
2022-09-18T04:42:10.176Z,60.01
2022-09-18T04:44:39.108Z,60.17
2022-09-18T04:47:08.526Z,60.61
2022-09-18T04:49:36.306Z,60.42
2022-09-18T04:52:04.136Z,59.71
2022-09-18T04:54:32.262Z,59.83
2022-09-18T04:57:00.114Z,60.07
2022-09-18T04:59:28.024Z,60.30
2022-09-18T05:01:59.244Z,60.47
2022-09-18T05:04:27.544Z,60.09
2022-09-18T05:07:08.359Z,60.24
2022-09-18T05:09:37.566Z,60.14
2022-09-18T05:12:07.268Z,59.85
2022-09-18T05:14:37.475Z,60.12
2022-09-18T05:17:08.219Z,59.82
2022-09-18T05:19:39.493Z,59.86
2022-09-18T05:22:20.375Z,60.28
2022-09-18T05:24:51.021Z,60.09
2022-09-18T05:27:20.628Z,59.67
2022-09-18T05:29:51.333Z,59.80
2022-09-18T05:32:23.101Z,60.35
2022-09-18T05:34:52.162Z,60.92
2022-09-18T05:37:20.020Z,60.26
2022-09-18T05:39:52.684Z,59.91
2022-09-18T05:42:20.841Z,59.92
2022-09-18T05:44:49.840Z,60.04
2022-09-18T05:47:22.012Z,60.17
2022-09-18T05:49:49.813Z,60.22
2022-09-18T05:52:17.620Z,60.57
2022-09-18T05:54:45.360Z,60.08
2022-09-18T05:57:13.126Z,60.30
2022-09-18T05:59:41.126Z,59.87
2022-09-18T06:02:10.698Z,60.06
2022-09-18T06:05:05.389Z,59.86
2022-09-18T06:07:33.299Z,60.02
2022-09-18T06:10:02.826Z,59.91
2022-09-18T06:12:31.484Z,60.13
2022-09-18T06:14:59.213Z,59.90
2022-09-18T06:17:27.638Z,60.60
2022-09-18T06:20:00.009Z,59.96
2022-09-18T06:22:27.840Z,60.03
2022-09-18T06:24:58.697Z,60.20
2022-09-18T06:27:33.834Z,59.87
2022-09-18T06:30:02.111Z,60.21
2022-09-18T06:32:33.798Z,60.07
2022-09-18T06:35:01.641Z,59.85
2022-09-18T06:37:29.625Z,59.55
2022-09-18T06:40:25.654Z,59.47
2022-09-18T06:43:13.661Z,59.59
2022-09-18T06:46:11.762Z,59.83
2022-09-18T06:48:44.893Z,59.42
2022-09-18T06:51:12.954Z,59.26
2022-09-18T06:54:06.617Z,59.52
2022-09-18T06:56:34.562Z,59.74
2022-09-18T06:59:02.502Z,59.59
2022-09-18T07:01:36.635Z,59.19
2022-09-18T07:04:11.294Z,59.38
2022-09-18T07:06:47.167Z,59.44
2022-09-18T07:09:15.746Z,59.16
2022-09-18T07:12:01.370Z,59.19
2022-09-18T07:14:49.435Z,59.49
2022-09-18T07:17:19.239Z,59.90
2022-09-18T07:19:53.724Z,59.95
2022-09-18T07:22:25.098Z,59.25
2022-09-18T07:24:52.908Z,59.46
2022-09-18T07:27:20.633Z,59.56
2022-09-18T07:29:50.876Z,59.67
2022-09-18T07:32:22.597Z,59.37
2022-09-18T07:34:50.630Z,59.39
2022-09-18T07:37:29.565Z,58.92
2022-09-18T07:40:23.471Z,58.74
2022-09-18T07:43:10.914Z,58.92
2022-09-18T07:45:45.498Z,58.77
2022-09-18T07:48:13.931Z,59.02
2022-09-18T07:50:47.483Z,58.66
2022-09-18T07:53:17.814Z,58.77
2022-09-18T07:55:50.169Z,58.42
2022-09-18T07:58:19.385Z,57.72
2022-09-18T08:01:07.302Z,57.63
2022-09-18T08:03:41.996Z,57.96
2022-09-18T08:06:12.965Z,57.83
2022-09-18T08:09:07.284Z,57.43
2022-09-18T08:11:54.148Z,57.55
2022-09-18T08:14:30.128Z,57.37
2022-09-18T08:17:24.063Z,57.22
2022-09-18T08:20:10.501Z,57.29
2022-09-18T08:22:43.632Z,57.05
2022-09-18T08:25:12.961Z,56.90
2022-09-18T08:27:43.619Z,56.75
2022-09-18T08:30:15.719Z,56.39
2022-09-18T08:32:45.559Z,56.00
2022-09-18T08:35:13.354Z,55.79
2022-09-18T08:37:48.842Z,55.93
2022-09-18T08:41:06.529Z,55.66
2022-09-18T08:44:08.546Z,55.46
2022-09-18T08:46:49.541Z,55.88
2022-09-18T08:49:46.869Z,55.94
2022-09-18T08:52:23.379Z,57.29
2022-09-18T08:55:14.750Z,56.43
2022-09-18T08:58:16.792Z,56.26
2022-09-18T09:00:56.521Z,56.06
2022-09-18T09:03:54.738Z,56.08
2022-09-18T09:06:38.807Z,55.92
2022-09-18T09:09:31.528Z,55.90
2022-09-18T09:12:46.168Z,55.90
2022-09-18T09:15:28.939Z,55.57
2022-09-18T09:18:17.473Z,55.90
2022-09-18T09:20:57.917Z,55.70
2022-09-18T09:24:23.373Z,55.86
2022-09-18T09:27:27.714Z,55.73
2022-09-18T09:30:28.090Z,55.38
2022-09-18T09:34:05.182Z,54.83
2022-09-18T09:36:59.119Z,55.09
2022-09-18T09:39:48.068Z,54.83
2022-09-18T09:42:42.344Z,54.73
2022-09-18T09:45:35.946Z,54.82
2022-09-18T09:48:42.219Z,54.97
2022-09-18T09:51:50.155Z,54.42
2022-09-18T09:54:36.940Z,54.38
2022-09-18T09:57:54.840Z,54.34
2022-09-18T10:00:24.500Z,54.30
2022-09-18T10:03:58.694Z,54.53
2022-09-18T10:07:23.418Z,54.36
2022-09-18T10:10:22.135Z,54.37
2022-09-18T10:13:09.440Z,53.89
2022-09-18T10:15:46.789Z,54.00
2022-09-18T10:18:33.885Z,54.55
2022-09-18T10:21:22.549Z,53.57
2022-09-18T10:24:11.168Z,53.21
2022-09-18T10:26:58.772Z,53.22
2022-09-18T10:29:26.778Z,52.92
2022-09-18T10:32:01.349Z,52.74
2022-09-18T10:34:37.630Z,52.25
2022-09-18T10:37:06.407Z,52.20
2022-09-18T10:39:38.982Z,51.79
2022-09-18T10:42:18.274Z,50.42
2022-09-18T10:45:01.633Z,50.31
2022-09-18T10:47:36.220Z,50.64
2022-09-18T10:50:13.311Z,49.95
2022-09-18T10:52:49.100Z,49.13
2022-09-18T10:55:27.622Z,48.56
2022-09-18T10:58:13.580Z,48.43
2022-09-18T11:01:17.093Z,49.18
2022-09-18T11:04:04.555Z,47.43
2022-09-18T11:06:38.245Z,47.21
2022-09-18T11:09:22.040Z,47.47
2022-09-18T11:11:51.461Z,47.56
2022-09-18T11:14:31.851Z,46.44
2022-09-18T11:17:31.096Z,46.07
2022-09-18T11:20:04.658Z,47.52
2022-09-18T11:22:44.436Z,46.39
2022-09-18T11:25:38.305Z,47.20
2022-09-18T11:28:28.500Z,45.33
2022-09-18T11:31:20.010Z,45.86
2022-09-18T11:34:00.721Z,45.48
2022-09-18T11:36:33.757Z,44.72
2022-09-18T11:39:21.390Z,44.65
2022-09-18T11:41:55.295Z,44.56
2022-09-18T11:44:34.541Z,44.00
2022-09-18T11:47:09.807Z,44.52
2022-09-18T11:50:00.581Z,44.87
2022-09-18T11:52:39.320Z,44.85
2022-09-18T11:55:35.985Z,43.49
2022-09-18T11:58:16.993Z,44.23
2022-09-18T12:01:19.220Z,43.90
2022-09-18T12:04:10.158Z,43.55
2022-09-18T12:06:56.662Z,42.51
2022-09-18T12:09:45.444Z,42.64
2022-09-18T12:12:36.004Z,43.16
2022-09-18T12:15:19.653Z,42.68
2022-09-18T12:18:19.818Z,41.85
2022-09-18T12:21:16.061Z,43.31
2022-09-18T12:23:44.331Z,42.23
2022-09-18T12:26:39.962Z,42.30
2022-09-18T12:29:19.586Z,41.35
2022-09-18T12:32:22.561Z,41.96
2022-09-18T12:35:35.867Z,40.18
2022-09-18T12:38:31.724Z,40.23
2022-09-18T12:41:48.524Z,41.06
2022-09-18T12:44:31.218Z,40.00
2022-09-18T12:47:11.969Z,39.85
2022-09-18T12:50:23.124Z,41.26
2022-09-18T12:53:25.016Z,40.75
2022-09-18T12:56:49.110Z,41.31
2022-09-18T12:59:52.459Z,41.18
2022-09-18T13:02:25.904Z,41.29
2022-09-18T13:05:06.002Z,41.31
2022-09-18T13:08:10.556Z,41.58
2022-09-18T13:10:43.536Z,41.39
2022-09-18T13:13:35.130Z,40.80
2022-09-18T13:16:22.361Z,40.64
2022-09-18T13:18:59.353Z,41.17
2022-09-18T13:21:44.549Z,40.38
2022-09-18T13:24:20.372Z,40.16
2022-09-18T13:26:51.102Z,40.88
2022-09-18T13:30:15.010Z,41.62
2022-09-18T13:32:43.061Z,41.67
2022-09-18T13:35:13.835Z,41.82
2022-09-18T13:37:42.792Z,42.63
2022-09-18T13:40:40.486Z,42.74
2022-09-18T13:43:20.713Z,42.43
2022-09-18T13:45:48.996Z,43.04
2022-09-18T13:48:45.837Z,42.71
2022-09-18T13:51:29.538Z,42.92
2022-09-18T13:54:11.074Z,42.63
2022-09-18T13:57:05.372Z,42.42
2022-09-18T13:59:49.695Z,42.83
2022-09-18T14:02:31.291Z,42.88
2022-09-18T14:05:41.159Z,42.43
2022-09-18T14:08:23.553Z,42.80
2022-09-18T14:11:15.518Z,42.76
2022-09-18T14:13:58.913Z,42.33
2022-09-18T14:16:38.859Z,41.76
2022-09-18T14:19:32.357Z,41.66
2022-09-18T14:22:01.519Z,42.26
2022-09-18T14:24:57.711Z,42.79
2022-09-18T14:27:58.128Z,42.36
2022-09-18T14:30:31.402Z,42.66
2022-09-18T14:33:06.207Z,41.66
2022-09-18T14:35:43.137Z,41.64
2022-09-18T14:38:26.456Z,42.10
2022-09-18T14:41:08.900Z,42.16
2022-09-18T14:43:47.352Z,42.48
2022-09-18T14:46:21.767Z,42.21
2022-09-18T14:48:50.487Z,41.50
2022-09-18T14:51:25.760Z,41.36
2022-09-18T14:53:57.064Z,41.29
2022-09-18T14:56:35.352Z,41.48
2022-09-18T14:59:14.489Z,41.22
2022-09-18T15:01:42.400Z,41.23
2022-09-18T15:04:25.967Z,41.34
2022-09-18T15:06:54.854Z,41.06
2022-09-18T15:09:33.354Z,41.11
2022-09-18T15:12:03.170Z,40.99
2022-09-18T15:14:44.119Z,40.94
2022-09-18T15:17:27.730Z,40.78
2022-09-18T15:20:08.855Z,40.04
2022-09-18T15:22:36.631Z,41.03
2022-09-18T15:25:05.488Z,40.75
2022-09-18T15:27:33.372Z,40.80
2022-09-18T15:30:14.680Z,39.95
2022-09-18T15:32:51.221Z,40.47
2022-09-18T15:35:32.232Z,40.50
2022-09-18T15:38:04.450Z,40.61
2022-09-18T15:40:36.650Z,40.46
2022-09-18T15:43:26.980Z,40.68
2022-09-18T15:46:09.373Z,40.75
2022-09-18T15:48:40.038Z,40.81
2022-09-18T15:51:24.444Z,40.51
2022-09-18T15:54:09.224Z,40.25
2022-09-18T15:56:49.442Z,40.28
2022-09-18T15:59:40.703Z,40.48
2022-09-18T16:02:37.572Z,40.40
2022-09-18T16:05:15.053Z,40.14
2022-09-18T16:07:52.616Z,39.82
2022-09-18T16:10:35.553Z,40.27
2022-09-18T16:13:10.926Z,39.99
2022-09-18T16:15:40.427Z,40.22
2022-09-18T16:18:19.919Z,39.89
2022-09-18T16:20:53.923Z,39.79
2022-09-18T16:23:50.719Z,39.90
2022-09-18T16:26:27.999Z,40.24
2022-09-18T16:28:59.198Z,40.13
2022-09-18T16:31:32.160Z,40.23
2022-09-18T16:34:04.637Z,40.06
2022-09-18T16:36:42.676Z,40.25
2022-09-18T16:39:18.575Z,39.92
2022-09-18T16:41:47.329Z,39.92
2022-09-18T16:44:18.265Z,39.99
2022-09-18T16:46:54.371Z,39.99
2022-09-18T16:49:27.939Z,40.23
2022-09-18T16:51:55.925Z,40.20
2022-09-18T16:54:26.671Z,40.11
2022-09-18T16:56:59.912Z,40.07
2022-09-18T16:59:31.643Z,39.95
2022-09-18T17:02:04.600Z,40.28
2022-09-18T17:04:33.915Z,40.35
2022-09-18T17:07:03.399Z,40.40
2022-09-18T17:09:31.479Z,40.47
2022-09-18T17:11:59.787Z,40.44
2022-09-18T17:14:27.611Z,40.52
2022-09-18T17:16:55.643Z,40.25
2022-09-18T17:19:23.664Z,40.35
2022-09-18T17:21:51.433Z,40.30
2022-09-18T17:24:25.564Z,40.47
2022-09-18T17:26:54.136Z,40.36
2022-09-18T17:29:22.127Z,40.44
2022-09-18T17:31:50.407Z,40.73
2022-09-18T17:34:19.072Z,40.49
2022-09-18T17:36:46.997Z,40.28
2022-09-18T17:39:17.056Z,40.82
2022-09-18T17:41:45.933Z,40.58
2022-09-18T17:44:15.210Z,40.60
2022-09-18T17:46:43.077Z,40.67
2022-09-18T17:49:10.851Z,40.74
2022-09-18T17:51:38.648Z,40.68
2022-09-18T17:54:06.542Z,40.80
2022-09-18T17:56:35.071Z,40.90
2022-09-18T17:59:09.768Z,40.62
2022-09-18T18:01:43.175Z,41.10
2022-09-18T18:04:10.965Z,40.73
2022-09-18T18:06:38.837Z,40.70
2022-09-18T18:09:09.861Z,41.04
2022-09-18T18:11:38.735Z,40.73
2022-09-18T18:14:06.581Z,40.61
2022-09-18T18:16:35.198Z,41.04
2022-09-18T18:19:07.077Z,40.93
2022-09-18T18:21:35.124Z,40.99
2022-09-18T18:24:09.087Z,41.21
2022-09-18T18:26:39.211Z,41.00
2022-09-18T18:29:10.751Z,41.56
2022-09-18T18:31:40.664Z,41.40
2022-09-18T18:34:10.793Z,42.10
2022-09-18T18:36:40.957Z,41.99
2022-09-18T18:39:12.302Z,41.97
2022-09-18T18:41:40.928Z,41.82
2022-09-18T18:44:11.497Z,42.63
2022-09-18T18:46:40.114Z,42.72
2022-09-18T18:49:15.035Z,42.46
2022-09-18T18:51:47.690Z,42.95
2022-09-18T18:54:19.011Z,42.38
2022-09-18T18:56:47.883Z,42.96
2022-09-18T18:59:18.535Z,43.10
2022-09-18T19:01:47.379Z,43.67
2022-09-18T19:04:21.595Z,43.90
2022-09-18T19:06:49.671Z,43.72
2022-09-18T19:09:28.603Z,43.84
2022-09-18T19:11:57.565Z,43.71
2022-09-18T19:14:31.593Z,43.17
2022-09-18T19:16:59.970Z,43.09
2022-09-18T19:19:29.088Z,42.61
2022-09-18T19:22:00.254Z,43.16
2022-09-18T19:24:28.816Z,43.36
2022-09-18T19:26:58.824Z,43.33
2022-09-18T19:29:27.419Z,43.06
2022-09-18T19:31:56.417Z,43.39
2022-09-18T19:34:24.368Z,43.43
2022-09-18T19:36:52.607Z,43.96
2022-09-18T19:39:22.511Z,45.09
2022-09-18T19:42:04.540Z,44.95
2022-09-18T19:44:40.618Z,44.97
2022-09-18T19:47:31.673Z,45.21
2022-09-18T19:50:02.168Z,45.52
2022-09-18T19:52:30.198Z,46.20
2022-09-18T19:54:59.098Z,46.38
2022-09-18T19:57:28.571Z,46.16
2022-09-18T19:59:57.345Z,47.71
2022-09-18T20:02:25.803Z,47.50
2022-09-18T20:04:53.798Z,48.56
2022-09-18T20:07:21.513Z,49.81
2022-09-18T20:09:49.292Z,51.76
2022-09-18T20:12:17.100Z,52.04
2022-09-18T20:14:45.251Z,52.86
2022-09-18T20:17:13.500Z,53.70
2022-09-18T20:19:41.263Z,54.70
2022-09-18T20:22:09.022Z,54.85
2022-09-18T20:24:36.779Z,55.53
2022-09-18T20:27:04.614Z,56.40
2022-09-18T20:29:32.498Z,55.88
2022-09-18T20:32:00.368Z,56.07
2022-09-18T20:34:28.251Z,54.76
2022-09-18T20:36:56.016Z,54.81
2022-09-18T20:39:23.826Z,55.88
2022-09-18T20:41:51.598Z,55.25
2022-09-18T20:44:19.634Z,55.10
2022-09-18T20:46:47.477Z,54.76
2022-09-18T20:49:18.092Z,54.09
2022-09-18T20:51:46.080Z,54.06
2022-09-18T20:54:14.996Z,53.85
2022-09-18T20:56:44.362Z,53.94
2022-09-18T20:59:16.579Z,53.47
2022-09-18T21:01:47.828Z,54.56
2022-09-18T21:04:17.741Z,54.32
2022-09-18T21:06:57.412Z,54.21
2022-09-18T21:09:28.145Z,54.44
2022-09-18T21:11:58.921Z,53.95
2022-09-18T21:14:27.384Z,54.33
2022-09-18T21:16:55.994Z,54.02
2022-09-18T21:19:26.375Z,54.07
2022-09-18T21:21:54.488Z,54.66
2022-09-18T21:24:22.464Z,54.48
2022-09-18T21:26:50.326Z,55.08
2022-09-18T21:29:25.268Z,54.99
2022-09-18T21:32:00.104Z,55.08
2022-09-18T21:34:31.358Z,55.71
2022-09-18T21:37:04.354Z,56.16
2022-09-18T21:39:32.668Z,55.50
2022-09-18T21:42:02.475Z,55.47
2022-09-18T21:44:31.910Z,55.77
2022-09-18T21:47:10.746Z,56.10
2022-09-18T21:49:38.780Z,56.09
2022-09-18T21:52:08.819Z,56.14
2022-09-18T21:54:36.583Z,55.99
2022-09-18T21:57:04.843Z,56.65
2022-09-18T21:59:32.969Z,55.53
2022-09-18T22:02:03.261Z,56.38
2022-09-18T22:04:32.869Z,55.50
2022-09-18T22:07:02.050Z,55.59
2022-09-18T22:09:39.225Z,55.37
2022-09-18T22:12:07.865Z,55.86
2022-09-18T22:14:38.379Z,55.60
2022-09-18T22:17:09.236Z,56.76
2022-09-18T22:19:41.165Z,56.77
2022-09-18T22:22:10.868Z,56.24
2022-09-18T22:24:39.232Z,56.05
2022-09-18T22:27:08.548Z,57.45
2022-09-18T22:29:39.421Z,58.20
2022-09-18T22:32:10.114Z,58.91
2022-09-18T22:34:38.419Z,60.20
2022-09-18T22:37:06.125Z,61.52
2022-09-18T22:39:34.064Z,60.36
2022-09-18T22:42:01.923Z,60.92
2022-09-18T22:44:31.146Z,60.60
2022-09-18T22:46:58.948Z,60.72
2022-09-18T22:49:26.752Z,61.47
2022-09-18T22:51:54.613Z,62.52
2022-09-18T22:54:25.981Z,61.56
2022-09-18T22:56:55.166Z,61.19
2022-09-18T22:59:26.552Z,60.77
2022-09-18T23:02:02.353Z,60.69
2022-09-18T23:04:32.892Z,61.58
2022-09-18T23:07:01.667Z,61.61
2022-09-18T23:09:31.117Z,61.42
2022-09-18T23:11:59.778Z,62.26
2022-09-18T23:14:30.168Z,61.30
2022-09-18T23:16:59.613Z,61.33
2022-09-18T23:19:31.633Z,60.69
2022-09-18T23:21:59.509Z,61.94
2022-09-18T23:24:28.186Z,61.14
2022-09-18T23:26:58.185Z,60.46
2022-09-18T23:29:28.533Z,61.20
2022-09-18T23:31:59.501Z,60.83
2022-09-18T23:34:31.465Z,61.46
2022-09-18T23:37:00.209Z,60.49
2022-09-18T23:39:34.897Z,61.11
2022-09-18T23:42:05.733Z,60.35
2022-09-18T23:44:34.292Z,60.21
2022-09-18T23:47:02.895Z,59.61
2022-09-18T23:49:31.451Z,59.68
2022-09-18T23:51:59.823Z,59.97
2022-09-18T23:54:31.097Z,59.56
2022-09-18T23:56:59.433Z,59.56
2022-09-18T23:59:28.138Z,59.67
